Antioch, California
Current Conditions -  °F | °C
As of 10:53 AM on Friday 28 Nov 2014 (Local Time) from KCCR Reporting Station
Clear Clear  
Wind Chill: 62°   Ceiling: Unl
Heat Index: 62°   Visibility: 10mi
Dew Point: 49°   Wind: 7mph
Humidity: 62%   Direction: 170°S
Pressure: 30.01"   Gusts: NA
Location:  38.02°N, 121.81°W
Report Text: KCCR 281853Z 17006KT 10SM CLR 17/09 A3001 RMK AO2 SLP147 T01670094
Loading
Personal Weather Stations






























Interactive Weather Map New forecast layout! Learn more

10-Day Weather Forecast

Advertisements
Track Severe Weather on mobile